Aviation Digital Data Service (ADDS)

Output produced by METARs form (0001 UTC 21 January 2019)
found at http://www.aviationweather.gov/metar/data/
 
Forecast for: DFFD (OUAGADOUGOU (MIL, BF)
Text: TAF DFFD 201700Z 2018/2124 03006G16KT CAVOK
Forecast period: 1800 UTC 20 January 2019 to 0000 UTC 22 January 2019
Forecast type: FROM: standard forecast or significant change
Winds: from the NNE (30 degrees) at 7 MPH (6 knots; 3.1 m/s)
gusting to 18 MPH (16 knots; 8.2 m/s)
Visibility: 6 or more miles 10+ km)
Ceiling: unknown
Clouds: missing
Weather: NSW  (no significant weather)
Text: TEMPO 2106/2110 4000 HZ
Forecast period: 0600 to 1000 UTC 21 January 2019
Forecast type: TEMPORARY: The following changes expected for less than half the time period
Visibility: 2.49 miles (4.01 km)
Ceiling: unknown
Clouds: missing
Weather: HZ  (haze)